SBKG

Presidente João Suassuna Airport

Campina Grande, Brazil
TAF SBKG 182200Z 1900/1912 12007KT 9000 SCT015 TN23/1907Z TX24/1911Z PROB30 1905/1909 BKN010 RMK PEA
Issued Valid From Valid To
Jan-18 @ 22:00 UTC
(4 hours ago)
Jan-19 @ 00:00 UTC
(2 hours ago)
Jan-19 @ 12:00 UTC
(in 10 hours)
Jan-19 @ 00:00 to Jan-19 @ 12:00
TAF SBKG 182200Z 1900/1912 12007KT 9000 SCT015 TN23/1907Z TX24/1911Z
Wind Visibility Clouds
120° at 7 knots 8,996 meters
  • Scattered at 1,500' AGL
Probable  (Probability 30%) Jan-19 @ 05:00 to Jan-19 @ 09:00
PROB30 1905/1909 BKN010 RMK PEA
Clouds
  • Broken at 1,000' AGL
TAF SBKG 182200Z 1900/1912 12007KT 9000 SCT015 TN23/1907Z TX24/1911Z PROB30 1905/1909 BKN010 RMK PEA
Issued Jan-18 @ 22:00 UTC
(4 hours ago)
Valid From Jan-19 @ 00:00 UTC
(2 hours ago)
Valid To Jan-19 @ 12:00 UTC
(in 10 hours)
Jan-19 @ 00:00 - Jan-19 @ 12:00
Wind Visibility
120° at 7 knots 8,996 meters
Clouds
  • Scattered at 1,500' AGL
Probability 30% Probable Jan-19 @ 05:00 - Jan-19 @ 09:00
Clouds
  • Broken at 1,000' AGL